sensor_id;sensor_type;location;lat;lon;timestamp;P1;durP1;ratioP1;P2;durP2;ratioP2
25615;SDS011;13482;48.234;13.006;2022-08-27T00:01:44;5.07;;;3.50;;
25615;SDS011;13482;48.234;13.006;2022-08-27T00:04:12;6.32;;;3.80;;
25615;SDS011;13482;48.234;13.006;2022-08-27T00:06:39;5.93;;;3.35;;
25615;SDS011;13482;48.234;13.006;2022-08-27T00:09:06;4.07;;;3.42;;
25615;SDS011;13482;48.234;13.006;2022-08-27T00:11:34;5.28;;;3.20;;
25615;SDS011;13482;48.234;13.006;2022-08-27T00:14:02;5.43;;;3.45;;
25615;SDS011;13482;48.234;13.006;2022-08-27T00:16:29;4.03;;;3.17;;
25615;SDS011;13482;48.234;13.006;2022-08-27T00:18:57;4.60;;;3.30;;
25615;SDS011;13482;48.234;13.006;2022-08-27T00:21:25;3.78;;;3.25;;
25615;SDS011;13482;48.234;13.006;2022-08-27T00:23:52;3.63;;;3.13;;
25615;SDS011;13482;48.234;13.006;2022-08-27T00:26:20;5.45;;;3.20;;
25615;SDS011;13482;48.234;13.006;2022-08-27T00:28:47;3.60;;;3.13;;
25615;SDS011;13482;48.234;13.006;2022-08-27T00:31:14;4.72;;;3.05;;
25615;SDS011;13482;48.234;13.006;2022-08-27T00:33:42;4.70;;;3.25;;
25615;SDS011;13482;48.234;13.006;2022-08-27T00:36:10;4.15;;;3.03;;
25615;SDS011;13482;48.234;13.006;2022-08-27T00:38:38;4.05;;;2.55;;
25615;SDS011;13482;48.234;13.006;2022-08-27T00:41:08;3.22;;;2.78;;
25615;SDS011;13482;48.234;13.006;2022-08-27T00:46:17;4.13;;;2.92;;
25615;SDS011;13482;48.234;13.006;2022-08-27T00:51:54;3.78;;;2.83;;
25615;SDS011;13482;48.234;13.006;2022-08-27T00:54:27;3.33;;;2.83;;
25615;SDS011;13482;48.234;13.006;2022-08-27T00:56:56;4.07;;;2.80;;
25615;SDS011;13482;48.234;13.006;2022-08-27T00:59:26;3.67;;;2.70;;
25615;SDS011;13482;48.234;13.006;2022-08-27T01:01:56;4.20;;;2.65;;
25615;SDS011;13482;48.234;13.006;2022-08-27T01:04:44;3.67;;;3.20;;
25615;SDS011;13482;48.234;13.006;2022-08-27T01:07:14;3.50;;;3.15;;
25615;SDS011;13482;48.234;13.006;2022-08-27T01:09:42;3.20;;;2.80;;
25615;SDS011;13482;48.234;13.006;2022-08-27T01:12:15;4.95;;;3.15;;
25615;SDS011;13482;48.234;13.006;2022-08-27T01:14:43;5.00;;;3.20;;
25615;SDS011;13482;48.234;13.006;2022-08-27T01:17:12;3.80;;;2.70;;
25615;SDS011;13482;48.234;13.006;2022-08-27T01:19:43;3.83;;;2.80;;
25615;SDS011;13482;48.234;13.006;2022-08-27T01:25:00;2.80;;;2.40;;
25615;SDS011;13482;48.234;13.006;2022-08-27T01:27:34;2.70;;;2.30;;
25615;SDS011;13482;48.234;13.006;2022-08-27T01:30:02;3.70;;;2.70;;
25615;SDS011;13482;48.234;13.006;2022-08-27T01:32:32;3.85;;;3.15;;
25615;SDS011;13482;48.234;13.006;2022-08-27T01:35:03;3.70;;;3.13;;
25615;SDS011;13482;48.234;13.006;2022-08-27T01:37:35;4.28;;;3.40;;
25615;SDS011;13482;48.234;13.006;2022-08-27T01:40:07;4.10;;;3.15;;
25615;SDS011;13482;48.234;13.006;2022-08-27T01:42:43;4.45;;;3.05;;
25615;SDS011;13482;48.234;13.006;2022-08-27T01:45:15;6.03;;;3.60;;
25615;SDS011;13482;48.234;13.006;2022-08-27T01:47:53;4.60;;;3.78;;
25615;SDS011;13482;48.234;13.006;2022-08-27T01:50:39;3.88;;;3.22;;
25615;SDS011;13482;48.234;13.006;2022-08-27T01:53:11;4.05;;;3.17;;
25615;SDS011;13482;48.234;13.006;2022-08-27T01:55:46;3.42;;;2.97;;
25615;SDS011;13482;48.234;13.006;2022-08-27T01:58:15;4.20;;;3.17;;
25615;SDS011;13482;48.234;13.006;2022-08-27T02:00:46;5.50;;;2.70;;
25615;SDS011;13482;48.234;13.006;2022-08-27T02:03:22;3.85;;;2.92;;
25615;SDS011;13482;48.234;13.006;2022-08-27T02:05:50;3.42;;;3.08;;
25615;SDS011;13482;48.234;13.006;2022-08-27T02:08:18;3.30;;;2.83;;
25615;SDS011;13482;48.234;13.006;2022-08-27T02:10:46;3.60;;;2.83;;
25615;SDS011;13482;48.234;13.006;2022-08-27T02:13:15;3.67;;;2.80;;
25615;SDS011;13482;48.234;13.006;2022-08-27T02:15:43;4.35;;;2.92;;
25615;SDS011;13482;48.234;13.006;2022-08-27T02:18:11;3.33;;;2.90;;
25615;SDS011;13482;48.234;13.006;2022-08-27T02:20:41;3.15;;;2.80;;
25615;SDS011;13482;48.234;13.006;2022-08-27T02:23:11;3.58;;;2.70;;
25615;SDS011;13482;48.234;13.006;2022-08-27T02:25:39;3.78;;;2.70;;
25615;SDS011;13482;48.234;13.006;2022-08-27T02:28:07;5.95;;;3.30;;
25615;SDS011;13482;48.234;13.006;2022-08-27T02:30:35;5.43;;;2.90;;
25615;SDS011;13482;48.234;13.006;2022-08-27T02:33:03;6.63;;;3.00;;
25615;SDS011;13482;48.234;13.006;2022-08-27T02:35:32;5.15;;;3.15;;
25615;SDS011;13482;48.234;13.006;2022-08-27T02:38:04;5.97;;;2.78;;
25615;SDS011;13482;48.234;13.006;2022-08-27T02:40:33;3.72;;;2.50;;
25615;SDS011;13482;48.234;13.006;2022-08-27T02:43:01;3.88;;;2.70;;
25615;SDS011;13482;48.234;13.006;2022-08-27T02:45:29;3.72;;;2.80;;
25615;SDS011;13482;48.234;13.006;2022-08-27T02:47:57;5.35;;;3.08;;
25615;SDS011;13482;48.234;13.006;2022-08-27T02:50:24;4.35;;;2.88;;
25615;SDS011;13482;48.234;13.006;2022-08-27T02:52:52;4.07;;;3.22;;
25615;SDS011;13482;48.234;13.006;2022-08-27T02:55:20;5.50;;;3.15;;
25615;SDS011;13482;48.234;13.006;2022-08-27T02:57:48;4.55;;;3.30;;
25615;SDS011;13482;48.234;13.006;2022-08-27T03:00:16;5.05;;;3.80;;
25615;SDS011;13482;48.234;13.006;2022-08-27T03:02:46;5.03;;;3.50;;
25615;SDS011;13482;48.234;13.006;2022-08-27T03:05:14;4.85;;;3.60;;
25615;SDS011;13482;48.234;13.006;2022-08-27T03:07:43;4.60;;;3.53;;
25615;SDS011;13482;48.234;13.006;2022-08-27T03:10:11;6.32;;;4.05;;
25615;SDS011;13482;48.234;13.006;2022-08-27T03:12:41;6.18;;;3.78;;
25615;SDS011;13482;48.234;13.006;2022-08-27T03:15:11;4.90;;;3.58;;
25615;SDS011;13482;48.234;13.006;2022-08-27T03:17:42;4.93;;;3.53;;
25615;SDS011;13482;48.234;13.006;2022-08-27T03:20:28;4.97;;;3.42;;
25615;SDS011;13482;48.234;13.006;2022-08-27T03:22:56;5.03;;;3.80;;
25615;SDS011;13482;48.234;13.006;2022-08-27T03:25:23;6.50;;;3.55;;
25615;SDS011;13482;48.234;13.006;2022-08-27T03:27:51;4.57;;;3.20;;
25615;SDS011;13482;48.234;13.006;2022-08-27T03:30:19;4.50;;;3.67;;
25615;SDS011;13482;48.234;13.006;2022-08-27T03:32:48;4.20;;;3.80;;
25615;SDS011;13482;48.234;13.006;2022-08-27T03:35:17;6.57;;;3.60;;
25615;SDS011;13482;48.234;13.006;2022-08-27T03:37:46;4.57;;;3.40;;
25615;SDS011;13482;48.234;13.006;2022-08-27T03:40:14;3.70;;;3.20;;
25615;SDS011;13482;48.234;13.006;2022-08-27T03:42:42;4.70;;;3.35;;
25615;SDS011;13482;48.234;13.006;2022-08-27T03:45:10;6.13;;;3.88;;
25615;SDS011;13482;48.234;13.006;2022-08-27T03:47:38;4.72;;;3.80;;
25615;SDS011;13482;48.234;13.006;2022-08-27T03:50:05;4.65;;;3.50;;
25615;SDS011;13482;48.234;13.006;2022-08-27T03:52:34;4.63;;;3.67;;
25615;SDS011;13482;48.234;13.006;2022-08-27T03:55:03;4.70;;;3.63;;
25615;SDS011;13482;48.234;13.006;2022-08-27T03:57:33;5.78;;;3.70;;
25615;SDS011;13482;48.234;13.006;2022-08-27T04:00:01;5.00;;;3.38;;
25615;SDS011;13482;48.234;13.006;2022-08-27T04:02:35;6.82;;;3.55;;
25615;SDS011;13482;48.234;13.006;2022-08-27T04:05:04;4.10;;;3.35;;
25615;SDS011;13482;48.234;13.006;2022-08-27T04:07:32;4.50;;;3.63;;
25615;SDS011;13482;48.234;13.006;2022-08-27T04:09:59;6.82;;;3.83;;
25615;SDS011;13482;48.234;13.006;2022-08-27T04:12:26;4.72;;;3.80;;
25615;SDS011;13482;48.234;13.006;2022-08-27T04:14:54;5.15;;;3.78;;
25615;SDS011;13482;48.234;13.006;2022-08-27T04:17:21;5.20;;;3.78;;
25615;SDS011;13482;48.234;13.006;2022-08-27T04:19:50;5.88;;;4.03;;
25615;SDS011;13482;48.234;13.006;2022-08-27T04:22:18;5.00;;;3.85;;
25615;SDS011;13482;48.234;13.006;2022-08-27T04:24:46;6.75;;;4.50;;
25615;SDS011;13482;48.234;13.006;2022-08-27T04:27:13;7.15;;;4.30;;
25615;SDS011;13482;48.234;13.006;2022-08-27T04:29:41;7.20;;;5.40;;
25615;SDS011;13482;48.234;13.006;2022-08-27T04:32:09;6.00;;;4.90;;
25615;SDS011;13482;48.234;13.006;2022-08-27T04:34:37;7.25;;;5.43;;
25615;SDS011;13482;48.234;13.006;2022-08-27T04:37:05;7.07;;;5.50;;
25615;SDS011;13482;48.234;13.006;2022-08-27T04:39:32;7.35;;;5.05;;
25615;SDS011;13482;48.234;13.006;2022-08-27T04:42:00;6.90;;;5.38;;
25615;SDS011;13482;48.234;13.006;2022-08-27T04:44:29;6.00;;;5.10;;
25615;SDS011;13482;48.234;13.006;2022-08-27T04:46:59;6.75;;;5.07;;
25615;SDS011;13482;48.234;13.006;2022-08-27T04:49:29;6.47;;;5.03;;
25615;SDS011;13482;48.234;13.006;2022-08-27T04:51:59;5.85;;;5.03;;
25615;SDS011;13482;48.234;13.006;2022-08-27T04:54:26;6.97;;;5.15;;
25615;SDS011;13482;48.234;13.006;2022-08-27T04:59:26;5.80;;;4.43;;
25615;SDS011;13482;48.234;13.006;2022-08-27T05:01:54;7.07;;;4.47;;
25615;SDS011;13482;48.234;13.006;2022-08-27T05:04:21;5.93;;;4.63;;
25615;SDS011;13482;48.234;13.006;2022-08-27T05:06:51;6.18;;;4.80;;
25615;SDS011;13482;48.234;13.006;2022-08-27T05:09:20;6.70;;;5.03;;
25615;SDS011;13482;48.234;13.006;2022-08-27T05:11:51;7.32;;;4.55;;
25615;SDS011;13482;48.234;13.006;2022-08-27T05:14:20;6.10;;;4.38;;
25615;SDS011;13482;48.234;13.006;2022-08-27T05:16:49;6.95;;;5.15;;
25615;SDS011;13482;48.234;13.006;2022-08-27T05:19:17;6.60;;;5.38;;
25615;SDS011;13482;48.234;13.006;2022-08-27T05:21:45;7.10;;;4.35;;
25615;SDS011;13482;48.234;13.006;2022-08-27T05:24:15;7.20;;;5.18;;
25615;SDS011;13482;48.234;13.006;2022-08-27T05:26:43;6.43;;;5.25;;
25615;SDS011;13482;48.234;13.006;2022-08-27T05:29:12;5.80;;;5.20;;
25615;SDS011;13482;48.234;13.006;2022-08-27T05:31:40;6.28;;;5.30;;
25615;SDS011;13482;48.234;13.006;2022-08-27T05:34:08;5.10;;;4.57;;
25615;SDS011;13482;48.234;13.006;2022-08-27T05:36:41;7.32;;;5.35;;
25615;SDS011;13482;48.234;13.006;2022-08-27T05:39:14;6.60;;;4.65;;
25615;SDS011;13482;48.234;13.006;2022-08-27T05:41:42;6.43;;;5.18;;
25615;SDS011;13482;48.234;13.006;2022-08-27T05:44:10;5.75;;;4.90;;
25615;SDS011;13482;48.234;13.006;2022-08-27T05:46:57;6.75;;;5.53;;
25615;SDS011;13482;48.234;13.006;2022-08-27T05:49:24;6.63;;;5.35;;
25615;SDS011;13482;48.234;13.006;2022-08-27T05:51:51;6.57;;;5.57;;
25615;SDS011;13482;48.234;13.006;2022-08-27T05:54:19;7.00;;;5.28;;
25615;SDS011;13482;48.234;13.006;2022-08-27T05:56:46;7.40;;;5.78;;
25615;SDS011;13482;48.234;13.006;2022-08-27T05:59:15;7.22;;;5.72;;
25615;SDS011;13482;48.234;13.006;2022-08-27T06:02:02;7.13;;;5.38;;
25615;SDS011;13482;48.234;13.006;2022-08-27T06:04:31;7.93;;;5.53;;
25615;SDS011;13482;48.234;13.006;2022-08-27T06:06:59;6.95;;;5.70;;
25615;SDS011;13482;48.234;13.006;2022-08-27T06:09:26;7.35;;;5.40;;
25615;SDS011;13482;48.234;13.006;2022-08-27T06:11:58;8.73;;;6.20;;
25615;SDS011;13482;48.234;13.006;2022-08-27T06:14:27;7.03;;;6.13;;
25615;SDS011;13482;48.234;13.006;2022-08-27T06:16:55;6.68;;;5.70;;
25615;SDS011;13482;48.234;13.006;2022-08-27T06:19:25;7.40;;;6.15;;
25615;SDS011;13482;48.234;13.006;2022-08-27T06:21:53;8.57;;;5.90;;
25615;SDS011;13482;48.234;13.006;2022-08-27T06:24:35;6.10;;;5.50;;
25615;SDS011;13482;48.234;13.006;2022-08-27T06:27:17;6.88;;;5.80;;
25615;SDS011;13482;48.234;13.006;2022-08-27T06:29:45;7.65;;;5.45;;
25615;SDS011;13482;48.234;13.006;2022-08-27T06:32:13;6.60;;;5.18;;
25615;SDS011;13482;48.234;13.006;2022-08-27T06:34:40;7.18;;;5.80;;
25615;SDS011;13482;48.234;13.006;2022-08-27T06:37:07;5.97;;;5.38;;
25615;SDS011;13482;48.234;13.006;2022-08-27T06:39:36;7.55;;;5.60;;
25615;SDS011;13482;48.234;13.006;2022-08-27T06:42:07;6.47;;;5.40;;
25615;SDS011;13482;48.234;13.006;2022-08-27T06:47:05;5.53;;;4.63;;
25615;SDS011;13482;48.234;13.006;2022-08-27T06:49:32;7.53;;;5.85;;
25615;SDS011;13482;48.234;13.006;2022-08-27T06:51:59;7.13;;;5.32;;
25615;SDS011;13482;48.234;13.006;2022-08-27T06:54:27;6.75;;;5.13;;
25615;SDS011;13482;48.234;13.006;2022-08-27T06:56:56;6.55;;;5.43;;
25615;SDS011;13482;48.234;13.006;2022-08-27T06:59:26;6.93;;;5.53;;
25615;SDS011;13482;48.234;13.006;2022-08-27T07:01:54;5.88;;;5.28;;
25615;SDS011;13482;48.234;13.006;2022-08-27T07:04:22;5.82;;;5.15;;
25615;SDS011;13482;48.234;13.006;2022-08-27T07:06:58;7.22;;;5.32;;
25615;SDS011;13482;48.234;13.006;2022-08-27T07:09:27;6.57;;;5.30;;
25615;SDS011;13482;48.234;13.006;2022-08-27T07:11:57;6.15;;;5.32;;
25615;SDS011;13482;48.234;13.006;2022-08-27T07:14:25;6.68;;;5.22;;
25615;SDS011;13482;48.234;13.006;2022-08-27T07:16:53;6.57;;;5.45;;
25615;SDS011;13482;48.234;13.006;2022-08-27T07:19:20;6.75;;;5.63;;
25615;SDS011;13482;48.234;13.006;2022-08-27T07:21:47;6.90;;;5.63;;
25615;SDS011;13482;48.234;13.006;2022-08-27T07:24:16;7.00;;;5.70;;
25615;SDS011;13482;48.234;13.006;2022-08-27T07:26:44;5.90;;;5.28;;
25615;SDS011;13482;48.234;13.006;2022-08-27T07:29:12;5.93;;;5.13;;
25615;SDS011;13482;48.234;13.006;2022-08-27T07:31:40;6.70;;;5.38;;
25615;SDS011;13482;48.234;13.006;2022-08-27T07:34:08;5.85;;;5.05;;
25615;SDS011;13482;48.234;13.006;2022-08-27T07:36:36;6.28;;;5.18;;
25615;SDS011;13482;48.234;13.006;2022-08-27T07:39:04;5.85;;;5.28;;
25615;SDS011;13482;48.234;13.006;2022-08-27T07:41:32;5.82;;;5.05;;
25615;SDS011;13482;48.234;13.006;2022-08-27T07:44:19;6.18;;;4.78;;
25615;SDS011;13482;48.234;13.006;2022-08-27T07:47:00;5.90;;;4.95;;
25615;SDS011;13482;48.234;13.006;2022-08-27T07:49:28;7.18;;;5.25;;
25615;SDS011;13482;48.234;13.006;2022-08-27T07:51:56;6.60;;;5.00;;
25615;SDS011;13482;48.234;13.006;2022-08-27T07:54:24;7.22;;;4.90;;
25615;SDS011;13482;48.234;13.006;2022-08-27T07:56:51;6.35;;;4.90;;
25615;SDS011;13482;48.234;13.006;2022-08-27T07:59:22;5.30;;;4.75;;
25615;SDS011;13482;48.234;13.006;2022-08-27T08:01:51;6.40;;;4.80;;
25615;SDS011;13482;48.234;13.006;2022-08-27T08:04:21;6.15;;;4.63;;
25615;SDS011;13482;48.234;13.006;2022-08-27T08:06:50;6.60;;;5.03;;
25615;SDS011;13482;48.234;13.006;2022-08-27T08:09:18;5.82;;;5.13;;
25615;SDS011;13482;48.234;13.006;2022-08-27T08:11:47;6.18;;;5.30;;
25615;SDS011;13482;48.234;13.006;2022-08-27T08:14:16;6.07;;;5.05;;
25615;SDS011;13482;48.234;13.006;2022-08-27T08:16:44;5.43;;;4.60;;
25615;SDS011;13482;48.234;13.006;2022-08-27T08:19:12;5.97;;;4.38;;
25615;SDS011;13482;48.234;13.006;2022-08-27T08:21:39;5.10;;;4.22;;
25615;SDS011;13482;48.234;13.006;2022-08-27T08:24:07;5.30;;;4.10;;
25615;SDS011;13482;48.234;13.006;2022-08-27T08:26:34;5.07;;;4.07;;
25615;SDS011;13482;48.234;13.006;2022-08-27T08:29:01;4.38;;;3.83;;
25615;SDS011;13482;48.234;13.006;2022-08-27T08:31:31;4.60;;;3.97;;
25615;SDS011;13482;48.234;13.006;2022-08-27T08:33:59;5.70;;;4.28;;
25615;SDS011;13482;48.234;13.006;2022-08-27T08:36:26;5.57;;;4.40;;
25615;SDS011;13482;48.234;13.006;2022-08-27T08:38:53;5.53;;;4.18;;
25615;SDS011;13482;48.234;13.006;2022-08-27T08:43:48;5.72;;;3.78;;
25615;SDS011;13482;48.234;13.006;2022-08-27T08:46:18;5.40;;;4.13;;
25615;SDS011;13482;48.234;13.006;2022-08-27T08:49:01;5.20;;;4.15;;
25615;SDS011;13482;48.234;13.006;2022-08-27T08:58:25;5.00;;;4.28;;
25615;SDS011;13482;48.234;13.006;2022-08-27T09:01:14;4.95;;;4.15;;
25615;SDS011;13482;48.234;13.006;2022-08-27T09:03:57;4.60;;;4.13;;
25615;SDS011;13482;48.234;13.006;2022-08-27T09:09:26;6.47;;;4.47;;
25615;SDS011;13482;48.234;13.006;2022-08-27T09:12:12;5.53;;;4.10;;
25615;SDS011;13482;48.234;13.006;2022-08-27T09:17:30;4.50;;;4.10;;
25615;SDS011;13482;48.234;13.006;2022-08-27T09:19:58;4.82;;;4.25;;
25615;SDS011;13482;48.234;13.006;2022-08-27T09:22:31;5.65;;;3.75;;
25615;SDS011;13482;48.234;13.006;2022-08-27T09:25:36;5.82;;;4.05;;
25615;SDS011;13482;48.234;13.006;2022-08-27T09:28:08;5.07;;;3.70;;
25615;SDS011;13482;48.234;13.006;2022-08-27T09:31:18;5.07;;;4.00;;
25615;SDS011;13482;48.234;13.006;2022-08-27T09:33:46;5.25;;;3.92;;
25615;SDS011;13482;48.234;13.006;2022-08-27T09:36:22;5.88;;;4.35;;
25615;SDS011;13482;48.234;13.006;2022-08-27T09:38:51;5.30;;;4.22;;
25615;SDS011;13482;48.234;13.006;2022-08-27T09:41:25;5.07;;;4.10;;
25615;SDS011;13482;48.234;13.006;2022-08-27T09:44:06;4.82;;;3.80;;
25615;SDS011;13482;48.234;13.006;2022-08-27T09:46:37;4.22;;;3.75;;
25615;SDS011;13482;48.234;13.006;2022-08-27T09:49:12;4.47;;;3.78;;
25615;SDS011;13482;48.234;13.006;2022-08-27T09:51:43;4.78;;;4.05;;
25615;SDS011;13482;48.234;13.006;2022-08-27T09:54:22;4.57;;;4.10;;
25615;SDS011;13482;48.234;13.006;2022-08-27T09:57:07;4.55;;;4.15;;
25615;SDS011;13482;48.234;13.006;2022-08-27T09:59:39;4.78;;;4.13;;
25615;SDS011;13482;48.234;13.006;2022-08-27T10:02:18;3.97;;;3.58;;
25615;SDS011;13482;48.234;13.006;2022-08-27T10:04:51;4.90;;;3.83;;
25615;SDS011;13482;48.234;13.006;2022-08-27T10:12:56;4.40;;;3.95;;
25615;SDS011;13482;48.234;13.006;2022-08-27T10:18:25;5.95;;;3.90;;
25615;SDS011;13482;48.234;13.006;2022-08-27T10:21:28;4.90;;;3.58;;
25615;SDS011;13482;48.234;13.006;2022-08-27T10:24:41;5.78;;;3.75;;
25615;SDS011;13482;48.234;13.006;2022-08-27T10:27:38;5.17;;;3.80;;
25615;SDS011;13482;48.234;13.006;2022-08-27T10:30:25;5.38;;;3.90;;
25615;SDS011;13482;48.234;13.006;2022-08-27T10:33:12;4.00;;;3.53;;
25615;SDS011;13482;48.234;13.006;2022-08-27T10:36:02;6.32;;;4.00;;
25615;SDS011;13482;48.234;13.006;2022-08-27T10:38:57;4.95;;;3.70;;
25615;SDS011;13482;48.234;13.006;2022-08-27T10:41:41;5.78;;;4.35;;
25615;SDS011;13482;48.234;13.006;2022-08-27T10:52:47;3.75;;;3.22;;
25615;SDS011;13482;48.234;13.006;2022-08-27T10:55:37;4.57;;;3.65;;
25615;SDS011;13482;48.234;13.006;2022-08-27T11:01:15;4.85;;;2.75;;
25615;SDS011;13482;48.234;13.006;2022-08-27T11:06:42;4.35;;;3.20;;
25615;SDS011;13482;48.234;13.006;2022-08-27T11:09:48;3.70;;;3.17;;
25615;SDS011;13482;48.234;13.006;2022-08-27T11:12:28;3.83;;;3.30;;
25615;SDS011;13482;48.234;13.006;2022-08-27T11:20:43;5.78;;;3.50;;
25615;SDS011;13482;48.234;13.006;2022-08-27T11:26:15;3.80;;;3.20;;
25615;SDS011;13482;48.234;13.006;2022-08-27T11:28:45;4.07;;;3.30;;
25615;SDS011;13482;48.234;13.006;2022-08-27T11:31:30;3.50;;;3.08;;
25615;SDS011;13482;48.234;13.006;2022-08-27T11:40:35;4.25;;;3.17;;
25615;SDS011;13482;48.234;13.006;2022-08-27T11:43:15;3.65;;;2.80;;
25615;SDS011;13482;48.234;13.006;2022-08-27T11:45:53;3.88;;;3.33;;
25615;SDS011;13482;48.234;13.006;2022-08-27T11:48:38;5.00;;;3.17;;
25615;SDS011;13482;48.234;13.006;2022-08-27T11:54:00;4.22;;;2.92;;
25615;SDS011;13482;48.234;13.006;2022-08-27T11:56:49;3.20;;;2.90;;
25615;SDS011;13482;48.234;13.006;2022-08-27T12:01:57;3.88;;;2.83;;
25615;SDS011;13482;48.234;13.006;2022-08-27T12:04:54;3.35;;;2.75;;
25615;SDS011;13482;48.234;13.006;2022-08-27T12:07:52;3.92;;;3.10;;
25615;SDS011;13482;48.234;13.006;2022-08-27T12:10:23;3.55;;;3.00;;
25615;SDS011;13482;48.234;13.006;2022-08-27T12:22:55;3.45;;;2.60;;
25615;SDS011;13482;48.234;13.006;2022-08-27T12:31:43;3.78;;;3.10;;
25615;SDS011;13482;48.234;13.006;2022-08-27T12:34:14;5.15;;;3.00;;
25615;SDS011;13482;48.234;13.006;2022-08-27T12:36:52;4.10;;;2.90;;
25615;SDS011;13482;48.234;13.006;2022-08-27T12:39:23;5.05;;;3.28;;
25615;SDS011;13482;48.234;13.006;2022-08-27T12:41:54;3.78;;;2.92;;
25615;SDS011;13482;48.234;13.006;2022-08-27T12:44:28;4.78;;;3.67;;
25615;SDS011;13482;48.234;13.006;2022-08-27T12:46:58;4.60;;;3.22;;
25615;SDS011;13482;48.234;13.006;2022-08-27T12:49:35;2.97;;;2.67;;
25615;SDS011;13482;48.234;13.006;2022-08-27T12:55:17;5.13;;;3.42;;
25615;SDS011;13482;48.234;13.006;2022-08-27T13:03:52;3.90;;;2.90;;
25615;SDS011;13482;48.234;13.006;2022-08-27T13:06:31;3.67;;;3.17;;
25615;SDS011;13482;48.234;13.006;2022-08-27T13:09:05;2.95;;;2.45;;
25615;SDS011;13482;48.234;13.006;2022-08-27T13:11:42;4.63;;;3.13;;
25615;SDS011;13482;48.234;13.006;2022-08-27T13:14:19;4.18;;;2.67;;
25615;SDS011;13482;48.234;13.006;2022-08-27T13:19:27;3.38;;;2.67;;
25615;SDS011;13482;48.234;13.006;2022-08-27T13:21:57;4.38;;;2.60;;
25615;SDS011;13482;48.234;13.006;2022-08-27T13:24:29;4.53;;;2.90;;
25615;SDS011;13482;48.234;13.006;2022-08-27T13:27:03;3.47;;;2.80;;
25615;SDS011;13482;48.234;13.006;2022-08-27T13:29:31;3.92;;;3.20;;
25615;SDS011;13482;48.234;13.006;2022-08-27T13:31:59;3.90;;;2.88;;
25615;SDS011;13482;48.234;13.006;2022-08-27T13:34:28;3.65;;;2.50;;
25615;SDS011;13482;48.234;13.006;2022-08-27T13:37:06;3.65;;;2.45;;
25615;SDS011;13482;48.234;13.006;2022-08-27T13:39:51;2.70;;;2.10;;
25615;SDS011;13482;48.234;13.006;2022-08-27T13:42:21;3.63;;;2.50;;
25615;SDS011;13482;48.234;13.006;2022-08-27T13:44:51;3.15;;;2.30;;
25615;SDS011;13482;48.234;13.006;2022-08-27T13:47:23;2.58;;;2.00;;
25615;SDS011;13482;48.234;13.006;2022-08-27T13:50:03;3.50;;;2.45;;
25615;SDS011;13482;48.234;13.006;2022-08-27T13:52:37;3.05;;;2.15;;
25615;SDS011;13482;48.234;13.006;2022-08-27T13:55:26;2.90;;;2.38;;
25615;SDS011;13482;48.234;13.006;2022-08-27T13:57:58;5.28;;;2.40;;
25615;SDS011;13482;48.234;13.006;2022-08-27T14:00:30;2.75;;;2.35;;
25615;SDS011;13482;48.234;13.006;2022-08-27T14:02:58;2.45;;;1.92;;
25615;SDS011;13482;48.234;13.006;2022-08-27T14:05:29;3.13;;;2.13;;
25615;SDS011;13482;48.234;13.006;2022-08-27T14:08:01;2.47;;;2.15;;
25615;SDS011;13482;48.234;13.006;2022-08-27T14:10:40;2.88;;;1.83;;
25615;SDS011;13482;48.234;13.006;2022-08-27T14:13:19;2.20;;;1.90;;
25615;SDS011;13482;48.234;13.006;2022-08-27T14:15:50;2.45;;;1.88;;
25615;SDS011;13482;48.234;13.006;2022-08-27T14:18:31;2.83;;;1.88;;
25615;SDS011;13482;48.234;13.006;2022-08-27T14:21:21;2.72;;;1.80;;
25615;SDS011;13482;48.234;13.006;2022-08-27T14:23:49;2.85;;;2.10;;
25615;SDS011;13482;48.234;13.006;2022-08-27T14:26:17;2.30;;;1.88;;
25615;SDS011;13482;48.234;13.006;2022-08-27T14:28:45;3.28;;;2.10;;
25615;SDS011;13482;48.234;13.006;2022-08-27T14:31:13;3.28;;;2.00;;
25615;SDS011;13482;48.234;13.006;2022-08-27T14:33:41;2.42;;;2.05;;
25615;SDS011;13482;48.234;13.006;2022-08-27T14:36:08;4.38;;;1.95;;
25615;SDS011;13482;48.234;13.006;2022-08-27T14:38:36;2.20;;;1.70;;
25615;SDS011;13482;48.234;13.006;2022-08-27T14:41:06;1.92;;;1.50;;
25615;SDS011;13482;48.234;13.006;2022-08-27T14:43:34;2.88;;;1.90;;
25615;SDS011;13482;48.234;13.006;2022-08-27T14:46:02;2.72;;;1.92;;
25615;SDS011;13482;48.234;13.006;2022-08-27T14:48:32;2.88;;;1.63;;
25615;SDS011;13482;48.234;13.006;2022-08-27T14:51:02;2.20;;;1.65;;
25615;SDS011;13482;48.234;13.006;2022-08-27T14:53:42;2.50;;;1.65;;
25615;SDS011;13482;48.234;13.006;2022-08-27T14:56:09;2.83;;;1.88;;
25615;SDS011;13482;48.234;13.006;2022-08-27T14:58:37;3.17;;;1.92;;
25615;SDS011;13482;48.234;13.006;2022-08-27T15:01:04;2.50;;;2.00;;
25615;SDS011;13482;48.234;13.006;2022-08-27T15:03:33;2.30;;;1.95;;
25615;SDS011;13482;48.234;13.006;2022-08-27T15:06:04;3.50;;;2.08;;
25615;SDS011;13482;48.234;13.006;2022-08-27T15:08:32;3.22;;;2.00;;
25615;SDS011;13482;48.234;13.006;2022-08-27T15:11:01;3.28;;;2.20;;
25615;SDS011;13482;48.234;13.006;2022-08-27T15:13:28;3.42;;;1.90;;
25615;SDS011;13482;48.234;13.006;2022-08-27T15:15:56;3.47;;;1.98;;
25615;SDS011;13482;48.234;13.006;2022-08-27T15:18:24;2.20;;;1.90;;
25615;SDS011;13482;48.234;13.006;2022-08-27T15:20:52;3.70;;;1.95;;
25615;SDS011;13482;48.234;13.006;2022-08-27T15:23:19;2.90;;;2.00;;
25615;SDS011;13482;48.234;13.006;2022-08-27T15:25:47;2.55;;;1.70;;
25615;SDS011;13482;48.234;13.006;2022-08-27T15:28:15;3.20;;;2.00;;
25615;SDS011;13482;48.234;13.006;2022-08-27T15:30:42;4.30;;;2.00;;
25615;SDS011;13482;48.234;13.006;2022-08-27T15:33:09;2.90;;;1.65;;
25615;SDS011;13482;48.234;13.006;2022-08-27T15:35:36;2.08;;;1.63;;
25615;SDS011;13482;48.234;13.006;2022-08-27T15:38:03;2.92;;;2.00;;
25615;SDS011;13482;48.234;13.006;2022-08-27T15:40:31;2.17;;;1.73;;
25615;SDS011;13482;48.234;13.006;2022-08-27T15:43:02;2.67;;;1.92;;
25615;SDS011;13482;48.234;13.006;2022-08-27T15:45:32;2.47;;;1.80;;
25615;SDS011;13482;48.234;13.006;2022-08-27T15:47:59;3.75;;;1.85;;
25615;SDS011;13482;48.234;13.006;2022-08-27T15:50:27;3.13;;;1.90;;
25615;SDS011;13482;48.234;13.006;2022-08-27T15:53:00;3.63;;;2.03;;
25615;SDS011;13482;48.234;13.006;2022-08-27T15:55:32;4.03;;;2.28;;
25615;SDS011;13482;48.234;13.006;2022-08-27T15:58:03;2.30;;;1.70;;
25615;SDS011;13482;48.234;13.006;2022-08-27T16:00:31;2.78;;;1.77;;
25615;SDS011;13482;48.234;13.006;2022-08-27T16:03:00;2.97;;;2.00;;
25615;SDS011;13482;48.234;13.006;2022-08-27T16:05:32;3.05;;;1.95;;
25615;SDS011;13482;48.234;13.006;2022-08-27T16:08:02;2.78;;;1.88;;
25615;SDS011;13482;48.234;13.006;2022-08-27T16:10:31;2.63;;;1.55;;
25615;SDS011;13482;48.234;13.006;2022-08-27T16:12:58;3.90;;;2.10;;
25615;SDS011;13482;48.234;13.006;2022-08-27T16:15:25;2.72;;;1.95;;
25615;SDS011;13482;48.234;13.006;2022-08-27T16:17:55;2.67;;;1.83;;
25615;SDS011;13482;48.234;13.006;2022-08-27T16:20:25;2.38;;;1.60;;
25615;SDS011;13482;48.234;13.006;2022-08-27T16:22:53;2.40;;;1.80;;
25615;SDS011;13482;48.234;13.006;2022-08-27T16:25:20;2.63;;;1.83;;
25615;SDS011;13482;48.234;13.006;2022-08-27T16:27:49;3.33;;;1.90;;
25615;SDS011;13482;48.234;13.006;2022-08-27T16:30:17;3.63;;;2.00;;
25615;SDS011;13482;48.234;13.006;2022-08-27T16:32:47;2.60;;;2.10;;
25615;SDS011;13482;48.234;13.006;2022-08-27T16:35:17;2.78;;;2.10;;
25615;SDS011;13482;48.234;13.006;2022-08-27T16:37:46;2.17;;;1.92;;
25615;SDS011;13482;48.234;13.006;2022-08-27T16:40:13;3.30;;;1.67;;